createdAt,value
2018-06-15T00:00:07.810Z,16.28
2018-06-15T00:01:16.465Z,16.32
2018-06-15T00:02:25.101Z,16.36
2018-06-15T00:03:33.756Z,16.34
2018-06-15T00:04:42.661Z,16.36
2018-06-15T00:05:51.313Z,16.24
2018-06-15T00:07:00.218Z,16.31
2018-06-15T00:08:08.876Z,16.32
2018-06-15T00:09:17.779Z,16.32
2018-06-15T00:10:26.706Z,16.36
2018-06-15T00:11:35.343Z,16.32
2018-06-15T00:12:43.992Z,16.29
2018-06-15T00:13:52.643Z,16.32
2018-06-15T00:15:01.293Z,16.26
2018-06-15T00:16:09.941Z,16.34
2018-06-15T00:17:18.580Z,16.26
2018-06-15T00:18:27.228Z,16.36
2018-06-15T00:19:36.140Z,16.32
2018-06-15T00:20:44.789Z,16.24
2018-06-15T00:21:53.434Z,16.36
2018-06-15T00:23:02.080Z,16.37
2018-06-15T00:24:10.731Z,16.34
2018-06-15T00:25:19.383Z,16.28
2018-06-15T00:26:28.024Z,16.36
2018-06-15T00:27:36.941Z,16.31
2018-06-15T00:28:45.582Z,16.28
2018-06-15T00:29:54.232Z,16.26
2018-06-15T00:31:02.875Z,16.28
2018-06-15T00:32:11.522Z,16.26
2018-06-15T00:33:20.166Z,16.28
2018-06-15T00:34:28.809Z,16.17
2018-06-15T00:35:37.729Z,16.22
2018-06-15T00:36:46.641Z,16.25
2018-06-15T00:37:55.551Z,16.24
2018-06-15T00:39:04.192Z,16.25
2018-06-15T00:40:12.846Z,16.31
2018-06-15T00:41:21.492Z,16.25
2018-06-15T00:42:30.138Z,16.26
2018-06-15T00:43:38.780Z,16.25
2018-06-15T00:44:47.433Z,16.29
2018-06-15T00:45:56.074Z,16.25
2018-06-15T00:47:04.724Z,16.24
2018-06-15T00:48:13.364Z,16.26
2018-06-15T00:49:22.281Z,16.25
2018-06-15T00:50:30.926Z,16.29
2018-06-15T00:51:39.576Z,16.25
2018-06-15T00:52:48.224Z,16.13
2018-06-15T00:53:56.866Z,16.18
2018-06-15T00:55:05.517Z,16.24
2018-06-15T00:56:14.428Z,16.18
2018-06-15T00:57:23.343Z,16.17
2018-06-15T00:58:31.984Z,16.17
2018-06-15T00:59:40.632Z,16.17
2018-06-15T01:00:49.278Z,16.1
2018-06-15T01:01:57.929Z,16.17
2018-06-15T01:03:06.837Z,16.17
2018-06-15T01:04:15.487Z,16.12
2018-06-15T01:05:24.131Z,16.1
2018-06-15T01:06:32.781Z,16.09
2018-06-15T01:07:41.425Z,16.05
2018-06-15T01:08:50.074Z,16.03
2018-06-15T01:09:58.716Z,16.06
2018-06-15T01:11:07.360Z,16.05
2018-06-15T01:12:16.274Z,16.06
2018-06-15T01:13:24.921Z,16.06
2018-06-15T01:14:33.837Z,15.98
2018-06-15T01:15:42.479Z,15.94
2018-06-15T01:16:51.129Z,15.94
2018-06-15T01:17:59.772Z,15.9
2018-06-15T01:19:08.418Z,15.84
2018-06-15T01:20:17.070Z,15.87
2018-06-15T01:21:25.710Z,15.81
2018-06-15T01:22:34.355Z,15.78
2018-06-15T01:23:42.999Z,15.72
2018-06-15T01:24:51.650Z,15.73
2018-06-15T01:26:00.294Z,15.65
2018-06-15T01:27:09.200Z,15.7
2018-06-15T01:28:17.846Z,15.63
2018-06-15T01:29:26.513Z,15.59
2018-06-15T01:30:35.423Z,15.52
2018-06-15T01:31:44.337Z,15.51
2018-06-15T01:32:52.982Z,15.63
2018-06-15T01:34:01.623Z,15.59
2018-06-15T01:35:10.272Z,15.6
2018-06-15T01:36:18.917Z,15.47
2018-06-15T01:37:27.570Z,15.44
2018-06-15T01:38:36.209Z,15.47
2018-06-15T01:39:44.865Z,15.39
2018-06-15T01:40:53.507Z,15.39
2018-06-15T01:42:02.422Z,15.36
2018-06-15T01:43:11.064Z,15.35
2018-06-15T01:44:19.974Z,15.32
2018-06-15T01:45:28.619Z,15.25
2018-06-15T01:46:37.267Z,15.26
2018-06-15T01:47:45.916Z,15.19
2018-06-15T01:48:54.558Z,15.07
2018-06-15T01:50:03.730Z,15.14
2018-06-15T01:51:12.641Z,15
2018-06-15T01:52:21.291Z,15.05
2018-06-15T01:53:30.208Z,15.07
2018-06-15T01:54:38.854Z,15.02
2018-06-15T01:55:47.772Z,15.02
2018-06-15T01:56:56.682Z,15
2018-06-15T01:58:05.325Z,15
2018-06-15T01:59:13.976Z,14.96
2018-06-15T02:00:22.618Z,14.93
2018-06-15T02:01:31.270Z,14.89
2018-06-15T02:02:39.911Z,14.82
2018-06-15T02:03:48.563Z,14.87
2018-06-15T02:04:57.464Z,14.89
2018-06-15T02:06:06.109Z,14.81
2018-06-15T02:07:15.023Z,14.77
2018-06-15T02:08:23.668Z,14.73
2018-06-15T02:09:32.315Z,14.68
2018-06-15T02:10:40.960Z,14.74
2018-06-15T02:11:49.875Z,14.7
2018-06-15T02:12:58.522Z,14.73
2018-06-15T02:14:07.167Z,14.73
2018-06-15T02:15:15.806Z,14.77
2018-06-15T02:16:24.459Z,14.66
2018-06-15T02:17:33.103Z,14.67
2018-06-15T02:18:41.749Z,14.67
2018-06-15T02:19:50.387Z,14.63
2018-06-15T02:20:59.036Z,14.62
2018-06-15T02:22:07.689Z,14.62
2018-06-15T02:23:16.335Z,14.62
2018-06-15T02:24:24.985Z,14.59
2018-06-15T02:25:33.889Z,14.59
2018-06-15T02:26:42.538Z,14.51
2018-06-15T02:27:51.179Z,14.56
2018-06-15T02:28:59.830Z,14.48
2018-06-15T02:30:08.467Z,14.55
2018-06-15T02:31:17.123Z,14.52
2018-06-15T02:32:26.286Z,14.56
2018-06-15T02:33:35.210Z,14.48
2018-06-15T02:34:43.845Z,14.43
2018-06-15T02:35:52.759Z,14.41
2018-06-15T02:37:01.403Z,14.41
2018-06-15T02:38:10.589Z,14.43
2018-06-15T02:39:19.493Z,14.45
2018-06-15T02:40:28.140Z,14.41
2018-06-15T02:41:36.785Z,14.4
2018-06-15T02:42:45.426Z,14.43
2018-06-15T02:43:54.347Z,14.36
2018-06-15T02:45:02.992Z,14.38
2018-06-15T02:46:11.911Z,14.4
2018-06-15T02:47:20.551Z,14.41
2018-06-15T02:48:29.210Z,14.28
2018-06-15T02:49:37.852Z,14.31
2018-06-15T02:50:46.510Z,14.33
2018-06-15T02:51:55.680Z,14.33
2018-06-15T02:53:04.343Z,14.3
2018-06-15T02:54:13.519Z,14.31
2018-06-15T02:55:22.165Z,14.26
2018-06-15T02:56:31.067Z,14.26
2018-06-15T02:57:39.715Z,14.3
2018-06-15T02:58:48.367Z,14.3
2018-06-15T02:59:57.317Z,14.28
2018-06-15T03:01:05.967Z,14.3
2018-06-15T03:02:14.862Z,14.23
2018-06-15T03:03:23.565Z,14.26
2018-06-15T03:04:32.767Z,14.25
2018-06-15T03:05:41.914Z,14.33
2018-06-15T03:06:50.652Z,14.33
2018-06-15T03:07:59.303Z,14.4
2018-06-15T03:09:07.947Z,14.43
2018-06-15T03:10:16.611Z,14.4
2018-06-15T03:11:25.246Z,14.41
2018-06-15T03:12:33.894Z,14.45
2018-06-15T03:13:42.540Z,14.58
2018-06-15T03:14:51.191Z,14.49
2018-06-15T03:15:59.834Z,14.61
2018-06-15T03:17:08.743Z,14.68
2018-06-15T03:18:17.387Z,14.66
2018-06-15T03:19:26.029Z,14.66
2018-06-15T03:20:34.679Z,14.71
2018-06-15T03:21:43.323Z,14.74
2018-06-15T03:22:51.969Z,14.71
2018-06-15T03:24:00.615Z,14.78
2018-06-15T03:25:09.590Z,14.73
2018-06-15T03:26:18.602Z,14.77
2018-06-15T03:27:27.251Z,14.9
2018-06-15T03:28:35.892Z,14.89
2018-06-15T03:29:44.810Z,14.92
2018-06-15T03:30:53.455Z,14.93
2018-06-15T03:32:02.117Z,14.9
2018-06-15T03:33:11.023Z,14.92
2018-06-15T03:34:19.668Z,14.99
2018-06-15T03:35:28.313Z,14.92
2018-06-15T03:36:36.961Z,15.08
2018-06-15T03:37:45.609Z,15.04
2018-06-15T03:38:54.247Z,15
2018-06-15T03:40:02.889Z,15.04
2018-06-15T03:41:11.535Z,15.11
2018-06-15T03:42:20.185Z,15.11
2018-06-15T03:43:28.825Z,15.15
2018-06-15T03:44:37.472Z,15.1
2018-06-15T03:45:46.116Z,15.12
2018-06-15T03:46:54.764Z,15.08
2018-06-15T03:48:03.406Z,15.15
2018-06-15T03:49:12.060Z,15.18
2018-06-15T03:50:20.965Z,15.23
2018-06-15T03:51:29.644Z,15.22
2018-06-15T03:52:38.258Z,15.23
2018-06-15T03:53:46.904Z,15.29
2018-06-15T03:54:55.544Z,15.29
2018-06-15T03:56:04.187Z,15.27
2018-06-15T03:57:12.834Z,15.37
2018-06-15T03:58:21.482Z,15.39
2018-06-15T03:59:30.124Z,15.41
2018-06-15T04:00:38.765Z,15.5
2018-06-15T04:01:47.416Z,15.43
2018-06-15T04:02:56.060Z,15.48
2018-06-15T04:04:04.713Z,15.45
2018-06-15T04:05:13.361Z,15.48
2018-06-15T04:06:22.011Z,15.51
2018-06-15T04:07:30.762Z,15.52
2018-06-15T04:08:39.304Z,15.51
2018-06-15T04:09:47.948Z,15.54
2018-06-15T04:10:56.860Z,15.55
2018-06-15T04:12:05.785Z,15.57
2018-06-15T04:13:14.509Z,15.43
2018-06-15T04:14:23.087Z,15.55
2018-06-15T04:15:31.719Z,15.6
2018-06-15T04:16:40.634Z,15.59
2018-06-15T04:17:49.275Z,15.63
2018-06-15T04:18:57.930Z,15.65
2018-06-15T04:20:06.569Z,15.63
2018-06-15T04:21:15.222Z,15.69
2018-06-15T04:22:23.862Z,15.69
2018-06-15T04:23:32.518Z,15.73
2018-06-15T04:24:41.155Z,15.73
2018-06-15T04:25:49.803Z,15.75
2018-06-15T04:26:58.447Z,15.83
2018-06-15T04:28:07.101Z,15.76
2018-06-15T04:29:15.745Z,15.85
2018-06-15T04:30:24.386Z,15.75
2018-06-15T04:31:33.034Z,15.85
2018-06-15T04:32:41.936Z,15.85
2018-06-15T04:33:50.591Z,15.9
2018-06-15T04:34:59.231Z,15.87
2018-06-15T04:36:07.881Z,15.85
2018-06-15T04:37:16.569Z,15.87
2018-06-15T04:38:25.178Z,15.98
2018-06-15T04:39:33.819Z,15.9
2018-06-15T04:40:42.475Z,15.91
2018-06-15T04:41:51.105Z,15.94
2018-06-15T04:42:59.759Z,15.96
2018-06-15T04:44:08.410Z,16
2018-06-15T04:45:17.318Z,16.08
2018-06-15T04:46:25.955Z,16.06
2018-06-15T04:47:34.603Z,16.1
2018-06-15T04:48:43.254Z,16.18
2018-06-15T04:49:51.903Z,16.17
2018-06-15T04:51:00.552Z,16.18
2018-06-15T04:52:09.189Z,16.17
2018-06-15T04:53:17.841Z,16.16
2018-06-15T04:54:26.481Z,16.25
2018-06-15T04:55:35.132Z,16.21
2018-06-15T04:56:43.775Z,16.31
2018-06-15T04:57:52.427Z,16.34
2018-06-15T04:59:01.072Z,16.28
2018-06-15T05:00:09.991Z,16.32
2018-06-15T05:01:18.628Z,16.41
2018-06-15T05:02:27.276Z,16.39
2018-06-15T05:03:35.920Z,16.39
2018-06-15T05:04:44.576Z,16.41
2018-06-15T05:05:53.480Z,16.44
2018-06-15T05:07:02.380Z,16.46
2018-06-15T05:08:11.024Z,16.49
2018-06-15T05:09:19.782Z,16.49
2018-06-15T05:10:28.327Z,16.49
2018-06-15T05:11:36.976Z,16.51
2018-06-15T05:12:45.618Z,16.58
2018-06-15T05:13:54.275Z,16.62
2018-06-15T05:15:03.172Z,16.57
2018-06-15T05:16:12.091Z,16.62
2018-06-15T05:17:21.231Z,16.65
2018-06-15T05:18:30.209Z,16.68
2018-06-15T05:19:39.108Z,16.64
2018-06-15T05:20:47.758Z,16.68
2018-06-15T05:21:56.402Z,16.76
2018-06-15T05:23:05.061Z,16.79
2018-06-15T05:24:13.706Z,16.8
2018-06-15T05:25:22.610Z,16.76
2018-06-15T05:26:31.251Z,16.74
2018-06-15T05:27:39.899Z,16.76
2018-06-15T05:28:48.561Z,16.86
2018-06-15T05:29:57.195Z,16.84
2018-06-15T05:31:06.121Z,16.84
2018-06-15T05:32:14.759Z,16.84
2018-06-15T05:33:23.414Z,16.89
2018-06-15T05:34:32.056Z,16.83
2018-06-15T05:35:40.706Z,16.87
2018-06-15T05:36:49.345Z,16.97
2018-06-15T05:37:58.265Z,16.98
2018-06-15T05:39:06.911Z,17.02
2018-06-15T05:40:15.827Z,16.98
2018-06-15T05:41:24.465Z,17.02
2018-06-15T05:42:33.388Z,16.99
2018-06-15T05:43:42.038Z,17.13
2018-06-15T05:44:51.214Z,17.14
2018-06-15T05:45:59.864Z,17.19
2018-06-15T05:47:08.502Z,17.2
2018-06-15T05:48:17.154Z,17.23
2018-06-15T05:49:25.794Z,17.19
2018-06-15T05:50:34.711Z,17.28
2018-06-15T05:51:43.349Z,17.28
2018-06-15T05:52:52.001Z,17.31
2018-06-15T05:54:00.647Z,17.37
2018-06-15T05:55:09.563Z,17.39
2018-06-15T05:56:18.201Z,17.35
2018-06-15T05:57:26.852Z,17.52
2018-06-15T05:58:35.754Z,17.39
2018-06-15T05:59:44.409Z,17.5
2018-06-15T06:00:53.052Z,17.5
2018-06-15T06:02:01.698Z,17.57
2018-06-15T06:03:10.610Z,17.49
2018-06-15T06:04:19.519Z,17.46
2018-06-15T06:05:28.176Z,17.5
2018-06-15T06:06:37.080Z,17.54
2018-06-15T06:07:45.731Z,17.5
2018-06-15T06:08:54.370Z,17.57
2018-06-15T06:10:03.028Z,17.65
2018-06-15T06:11:11.675Z,17.69
2018-06-15T06:12:20.322Z,17.66
2018-06-15T06:13:28.965Z,17.76
2018-06-15T06:14:37.616Z,17.82
2018-06-15T06:15:46.263Z,17.82
2018-06-15T06:16:54.924Z,17.78
2018-06-15T06:18:03.558Z,17.82
2018-06-15T06:19:12.211Z,17.82
2018-06-15T06:20:20.854Z,17.8
2018-06-15T06:21:29.504Z,17.79
2018-06-15T06:22:38.151Z,17.86
2018-06-15T06:23:47.054Z,17.94
2018-06-15T06:24:55.971Z,17.9
2018-06-15T06:26:04.621Z,18.02
2018-06-15T06:27:13.533Z,18.05
2018-06-15T06:28:22.176Z,18.12
2018-06-15T06:29:30.827Z,18.06
2018-06-15T06:30:39.473Z,18.15
2018-06-15T06:31:48.125Z,18.18
2018-06-15T06:32:56.766Z,18.21
2018-06-15T06:34:05.414Z,18.21
2018-06-15T06:35:14.060Z,18.11
2018-06-15T06:36:22.716Z,18.08
2018-06-15T06:37:31.360Z,18.13
2018-06-15T06:38:40.012Z,18.06
2018-06-15T06:39:48.922Z,17.97
2018-06-15T06:40:57.567Z,17.94
2018-06-15T06:42:06.220Z,17.97
2018-06-15T06:43:15.149Z,17.87
2018-06-15T06:44:23.789Z,17.95
2018-06-15T06:45:32.434Z,17.84
2018-06-15T06:46:41.090Z,17.97
2018-06-15T06:47:49.735Z,18.02
2018-06-15T06:48:58.381Z,17.93
2018-06-15T06:50:07.024Z,17.91
2018-06-15T06:51:15.675Z,17.97
2018-06-15T06:52:24.323Z,17.82
2018-06-15T06:53:33.497Z,17.79
2018-06-15T06:54:42.140Z,17.76
2018-06-15T06:55:51.057Z,17.72
2018-06-15T06:56:59.968Z,17.72
2018-06-15T06:58:08.621Z,17.72
2018-06-15T06:59:17.275Z,17.72
2018-06-15T07:00:25.918Z,17.72
2018-06-15T07:01:34.832Z,17.75
2018-06-15T07:02:43.740Z,17.75
2018-06-15T07:03:52.392Z,17.76
2018-06-15T07:05:01.313Z,17.79
2018-06-15T07:06:09.957Z,17.84
2018-06-15T07:07:18.608Z,17.82
2018-06-15T07:08:27.252Z,17.95
2018-06-15T07:09:36.169Z,17.95
2018-06-15T07:10:44.812Z,18.12
2018-06-15T07:11:53.461Z,18.11
2018-06-15T07:13:02.099Z,18.08
2018-06-15T07:14:11.016Z,18.26
2018-06-15T07:15:19.667Z,18.21
2018-06-15T07:16:28.317Z,18.23
2018-06-15T07:17:37.234Z,18.19
2018-06-15T07:18:45.872Z,18.24
2018-06-15T07:19:54.527Z,18.28
2018-06-15T07:21:03.172Z,18.36
2018-06-15T07:22:11.829Z,18.37
2018-06-15T07:23:20.733Z,18.46
2018-06-15T07:24:29.390Z,18.58
2018-06-15T07:25:38.035Z,18.64
2018-06-15T07:26:46.691Z,18.7
2018-06-15T07:27:55.331Z,18.78
2018-06-15T07:29:04.247Z,18.74
2018-06-15T07:30:13.158Z,18.83
2018-06-15T07:31:21.812Z,18.96
2018-06-15T07:32:30.458Z,19.08
2018-06-15T07:33:39.103Z,19.2
2018-06-15T07:34:47.751Z,19.11
2018-06-15T07:35:56.399Z,19.16
2018-06-15T07:37:05.056Z,19.22
2018-06-15T07:38:13.702Z,19.41
2018-06-15T07:39:22.619Z,19.45
2018-06-15T07:40:31.258Z,19.48
2018-06-15T07:41:39.916Z,19.57
2018-06-15T07:42:48.561Z,19.6
2018-06-15T07:43:57.212Z,19.63
2018-06-15T07:45:05.854Z,19.66
2018-06-15T07:46:14.512Z,19.45
2018-06-15T07:47:23.164Z,19.57
2018-06-15T07:48:31.813Z,19.56
2018-06-15T07:49:40.454Z,19.59
2018-06-15T07:50:49.104Z,19.62
2018-06-15T07:51:57.756Z,19.6
2018-06-15T07:53:06.413Z,19.63
2018-06-15T07:54:15.065Z,19.67
2018-06-15T07:55:23.703Z,19.72
2018-06-15T07:56:32.624Z,19.74
2018-06-15T07:57:41.269Z,19.77
2018-06-15T07:58:50.190Z,19.77
2018-06-15T07:59:58.833Z,19.72
2018-06-15T08:01:07.490Z,19.81
2018-06-15T08:02:16.398Z,20.03
2018-06-15T08:03:25.324Z,20.03
2018-06-15T08:04:33.963Z,20.1
2018-06-15T08:05:42.617Z,20.27
2018-06-15T08:06:51.265Z,20.29
2018-06-15T08:07:59.919Z,20.4
2018-06-15T08:09:08.570Z,20.59
2018-06-15T08:10:17.283Z,20.58
2018-06-15T08:11:25.868Z,20.66
2018-06-15T08:12:34.514Z,20.68
2018-06-15T08:13:43.169Z,20.75
2018-06-15T08:14:51.819Z,20.6
2018-06-15T08:16:00.471Z,20.64
2018-06-15T08:17:09.117Z,20.68
2018-06-15T08:18:17.775Z,20.66
2018-06-15T08:19:26.418Z,20.67
2018-06-15T08:20:35.074Z,20.6
2018-06-15T08:21:43.978Z,20.64
2018-06-15T08:22:52.633Z,20.78
2018-06-15T08:24:01.281Z,20.88
2018-06-15T08:25:09.934Z,20.88
2018-06-15T08:26:18.583Z,20.9
2018-06-15T08:27:27.495Z,20.9
2018-06-15T08:28:36.145Z,20.75
2018-06-15T08:29:45.061Z,20.89
2018-06-15T08:30:53.717Z,20.7
2018-06-15T08:32:02.358Z,20.66
2018-06-15T08:33:11.013Z,20.6
2018-06-15T08:34:19.927Z,20.6
2018-06-15T08:35:28.580Z,20.6
2018-06-15T08:36:37.237Z,20.71
2018-06-15T08:37:45.891Z,20.6
2018-06-15T08:38:54.551Z,20.71
2018-06-15T08:40:03.319Z,20.63
2018-06-15T08:41:12.028Z,20.73
2018-06-15T08:42:20.717Z,20.75
2018-06-15T08:43:29.330Z,20.71
2018-06-15T08:44:37.986Z,20.74
2018-06-15T08:45:46.635Z,20.73
2018-06-15T08:46:55.285Z,20.71
2018-06-15T08:48:03.933Z,20.82
2018-06-15T08:49:12.580Z,20.83
2018-06-15T08:50:21.235Z,20.75
2018-06-15T08:51:29.893Z,20.83
2018-06-15T08:52:38.543Z,20.83
2018-06-15T08:53:47.188Z,20.77
2018-06-15T08:54:55.845Z,20.9
2018-06-15T08:56:04.494Z,20.78
2018-06-15T08:57:13.147Z,20.92
2018-06-15T08:58:21.796Z,20.88
2018-06-15T08:59:30.447Z,20.86
2018-06-15T09:00:39.095Z,20.77
2018-06-15T09:01:47.793Z,20.82
2018-06-15T09:02:56.398Z,20.86
2018-06-15T09:04:05.310Z,20.92
2018-06-15T09:05:13.962Z,20.89
2018-06-15T09:06:22.878Z,20.86
2018-06-15T09:07:31.526Z,20.92
2018-06-15T09:08:40.185Z,20.83
2018-06-15T09:09:48.836Z,20.82
2018-06-15T09:10:57.490Z,20.88
2018-06-15T09:12:06.408Z,20.83
2018-06-15T09:13:15.064Z,20.86
2018-06-15T09:14:23.726Z,20.89
2018-06-15T09:15:32.633Z,20.89
2018-06-15T09:16:41.280Z,20.96
2018-06-15T09:17:49.935Z,21.05
2018-06-15T09:18:58.586Z,21.14
2018-06-15T09:20:07.240Z,21.22
2018-06-15T09:21:15.887Z,21.29
2018-06-15T09:22:24.538Z,21.37
2018-06-15T09:23:33.190Z,21.44
2018-06-15T09:24:41.842Z,21.38
2018-06-15T09:25:50.494Z,21.37
2018-06-15T09:26:59.141Z,21.44
2018-06-15T09:28:07.790Z,21.45
2018-06-15T09:29:16.441Z,21.56
2018-06-15T09:30:25.101Z,21.53
2018-06-15T09:31:33.747Z,21.54
2018-06-15T09:32:42.447Z,21.66
2018-06-15T09:33:51.053Z,21.78
2018-06-15T09:34:59.708Z,21.85
2018-06-15T09:36:08.361Z,21.91
2018-06-15T09:37:17.008Z,21.84
2018-06-15T09:38:25.655Z,21.89
2018-06-15T09:39:34.311Z,21.88
2018-06-15T09:40:42.960Z,21.85
2018-06-15T09:41:51.612Z,21.89
2018-06-15T09:43:00.260Z,21.83
2018-06-15T09:44:08.908Z,21.96
2018-06-15T09:45:17.564Z,21.83
2018-06-15T09:46:26.343Z,21.89
2018-06-15T09:47:34.866Z,21.88
2018-06-15T09:48:43.513Z,21.78
2018-06-15T09:49:52.171Z,21.92
2018-06-15T09:51:01.081Z,21.83
2018-06-15T09:52:09.994Z,21.85
2018-06-15T09:53:18.640Z,21.83
2018-06-15T09:54:27.305Z,21.85
2018-06-15T09:55:35.954Z,21.81
2018-06-15T09:56:44.869Z,21.85
2018-06-15T09:57:53.515Z,21.83
2018-06-15T09:59:02.434Z,22.03
2018-06-15T10:00:11.085Z,22.06
2018-06-15T10:01:19.742Z,22.14
2018-06-15T10:02:28.399Z,22.16
2018-06-15T10:03:37.047Z,22.22
2018-06-15T10:04:45.700Z,22.41
2018-06-15T10:05:54.348Z,22.46
2018-06-15T10:07:03.009Z,22.56
2018-06-15T10:08:11.660Z,22.58
2018-06-15T10:09:20.307Z,22.58
2018-06-15T10:10:28.959Z,22.71
2018-06-15T10:11:37.612Z,22.58
2018-06-15T10:12:46.254Z,22.59
2018-06-15T10:13:54.908Z,22.7
2018-06-15T10:15:03.832Z,22.71
2018-06-15T10:16:12.493Z,22.73
2018-06-15T10:17:21.143Z,22.78
2018-06-15T10:18:30.054Z,22.88
2018-06-15T10:19:38.966Z,22.98
2018-06-15T10:20:47.616Z,23.14
2018-06-15T10:21:56.276Z,23.28
2018-06-15T10:23:04.922Z,23.26
2018-06-15T10:24:13.579Z,23.33
2018-06-15T10:25:22.227Z,23.44
2018-06-15T10:26:30.888Z,23.51
2018-06-15T10:27:39.534Z,23.54
2018-06-15T10:28:48.453Z,23.59
2018-06-15T10:29:57.097Z,23.66
2018-06-15T10:31:05.759Z,23.71
2018-06-15T10:32:14.412Z,23.58
2018-06-15T10:33:23.067Z,23.55
2018-06-15T10:34:31.968Z,23.55
2018-06-15T10:35:40.625Z,23.67
2018-06-15T10:36:49.546Z,23.63
2018-06-15T10:37:58.199Z,23.73
2018-06-15T10:39:06.853Z,23.69
2018-06-15T10:40:15.497Z,23.77
2018-06-15T10:41:24.155Z,23.81
2018-06-15T10:42:32.806Z,23.73
2018-06-15T10:43:41.731Z,23.81
2018-06-15T10:44:50.375Z,23.76
2018-06-15T10:45:59.032Z,23.82
2018-06-15T10:47:07.702Z,23.81
2018-06-15T10:48:16.370Z,23.74
2018-06-15T10:49:25.014Z,23.71
2018-06-15T10:50:33.666Z,23.62
2018-06-15T10:51:42.316Z,23.58
2018-06-15T10:52:50.977Z,23.45
2018-06-15T10:53:59.887Z,23.62
2018-06-15T10:55:08.535Z,23.7
2018-06-15T10:56:17.218Z,23.73
2018-06-15T10:57:25.838Z,23.77
2018-06-15T10:58:34.503Z,23.77
2018-06-15T10:59:43.148Z,23.84
2018-06-15T11:00:51.806Z,23.86
2018-06-15T11:02:00.451Z,23.89
2018-06-15T11:03:09.373Z,23.88
2018-06-15T11:04:18.026Z,23.96
2018-06-15T11:05:26.680Z,24.03
2018-06-15T11:06:35.589Z,24.01
2018-06-15T11:07:44.244Z,24.06
2018-06-15T11:08:55.874Z,23.96
2018-06-15T11:10:04.768Z,23.84
2018-06-15T11:11:13.417Z,23.82
2018-06-15T11:12:22.070Z,23.73
2018-06-15T11:13:30.726Z,23.86
2018-06-15T11:14:39.382Z,23.81
2018-06-15T11:15:48.302Z,23.79
2018-06-15T11:16:56.950Z,23.86
2018-06-15T11:18:05.605Z,23.85
2018-06-15T11:19:14.256Z,24.07
2018-06-15T11:20:22.913Z,24.25
2018-06-15T11:21:31.562Z,24.37
2018-06-15T11:22:40.215Z,24.29
2018-06-15T11:23:48.867Z,24.31
2018-06-15T11:24:57.522Z,24.25
2018-06-15T11:26:06.172Z,24.09
2018-06-15T11:27:14.830Z,23.86
2018-06-15T11:28:23.742Z,23.69
2018-06-15T11:29:32.397Z,23.49
2018-06-15T11:30:41.050Z,23.21
2018-06-15T11:31:49.707Z,23.17
2018-06-15T11:32:58.358Z,23.07
2018-06-15T11:34:07.009Z,22.96
2018-06-15T11:35:15.664Z,23.08
2018-06-15T11:36:24.315Z,23.17
2018-06-15T11:37:32.966Z,23.29
2018-06-15T11:38:41.624Z,23.33
2018-06-15T11:39:50.545Z,23.44
2018-06-15T11:40:59.266Z,23.49
2018-06-15T11:42:07.851Z,23.47
2018-06-15T11:43:16.498Z,23.29
2018-06-15T11:44:25.156Z,23.28
2018-06-15T11:45:33.812Z,23.32
2018-06-15T11:46:42.466Z,23.2
2018-06-15T11:47:51.114Z,23.17
2018-06-15T11:48:59.768Z,23.26
2018-06-15T11:50:08.423Z,23.28
2018-06-15T11:51:17.075Z,23.32
2018-06-15T11:52:25.731Z,23.45
2018-06-15T11:53:34.379Z,23.59
2018-06-15T11:54:43.033Z,23.62
2018-06-15T11:55:51.686Z,23.79
2018-06-15T11:57:00.610Z,23.85
2018-06-15T11:58:09.522Z,23.99
2018-06-15T11:59:18.175Z,23.92
2018-06-15T12:00:26.830Z,23.89
2018-06-15T12:01:35.488Z,23.92
2018-06-15T12:02:44.137Z,24
2018-06-15T12:03:52.795Z,24.01
2018-06-15T12:05:01.447Z,23.94
2018-06-15T12:06:10.112Z,23.85
2018-06-15T12:07:19.022Z,23.91
2018-06-15T12:08:27.678Z,23.86
2018-06-15T12:09:36.328Z,23.84
2018-06-15T12:10:44.978Z,23.73
2018-06-15T12:11:53.640Z,23.66
2018-06-15T12:13:02.287Z,23.56
2018-06-15T12:14:10.942Z,23.63
2018-06-15T12:15:19.591Z,23.66
2018-06-15T12:16:28.251Z,23.69
2018-06-15T12:17:36.898Z,23.89
2018-06-15T12:18:45.562Z,23.99
2018-06-15T12:19:54.204Z,24.06
2018-06-15T12:21:02.869Z,24.22
2018-06-15T12:22:11.522Z,24.28
2018-06-15T12:23:20.435Z,24.22
2018-06-15T12:24:29.081Z,24.24
2018-06-15T12:25:38.001Z,24.4
2018-06-15T12:26:46.661Z,24.51
2018-06-15T12:27:55.319Z,24.69
2018-06-15T12:29:03.979Z,24.75
2018-06-15T12:30:12.888Z,24.68
2018-06-15T12:31:21.547Z,24.66
2018-06-15T12:32:30.470Z,24.58
2018-06-15T12:33:39.126Z,24.51
2018-06-15T12:34:47.769Z,24.46
2018-06-15T12:35:56.695Z,24.34
2018-06-15T12:37:05.347Z,24.24
2018-06-15T12:38:14.008Z,24.14
2018-06-15T12:39:23.006Z,24.11
2018-06-15T12:40:31.659Z,24.07
2018-06-15T12:41:40.310Z,24.11
2018-06-15T12:42:48.973Z,24.09
2018-06-15T12:43:57.627Z,24.04
2018-06-15T12:45:06.273Z,24
2018-06-15T12:46:14.929Z,24.01
2018-06-15T12:47:23.574Z,24.03
2018-06-15T12:48:32.241Z,24
2018-06-15T12:49:40.890Z,23.91
2018-06-15T12:50:49.545Z,23.99
2018-06-15T12:51:58.192Z,23.94
2018-06-15T12:53:06.847Z,24.04
2018-06-15T12:54:15.496Z,24.11
2018-06-15T12:55:24.156Z,24.22
2018-06-15T12:56:33.068Z,24.28
2018-06-15T12:57:41.736Z,24.4
2018-06-15T12:58:50.389Z,24.43
2018-06-15T12:59:59.039Z,24.58
2018-06-15T13:01:07.703Z,24.63
2018-06-15T13:02:16.621Z,24.63
2018-06-15T13:03:25.270Z,24.58
2018-06-15T13:04:33.920Z,24.53
2018-06-15T13:05:42.571Z,24.53
2018-06-15T13:06:51.233Z,24.43
2018-06-15T13:07:59.906Z,24.48
2018-06-15T13:09:09.454Z,24.44
2018-06-15T13:10:18.097Z,24.46
2018-06-15T13:11:27.027Z,24.46
2018-06-15T13:12:35.676Z,24.51
2018-06-15T13:13:44.334Z,24.61
2018-06-15T13:14:52.979Z,24.65
2018-06-15T13:16:01.909Z,24.68
2018-06-15T13:17:10.561Z,24.75
2018-06-15T13:18:19.216Z,24.85
2018-06-15T13:19:27.862Z,24.89
2018-06-15T13:20:36.778Z,24.97
2018-06-15T13:21:45.435Z,25.01
2018-06-15T13:22:54.096Z,25.09
2018-06-15T13:24:02.746Z,25.22
2018-06-15T13:25:11.390Z,25.29
2018-06-15T13:26:20.042Z,25.36
2018-06-15T13:27:28.695Z,25.46
2018-06-15T13:28:37.619Z,25.46
2018-06-15T13:29:46.265Z,25.31
2018-06-15T13:30:54.924Z,25.31
2018-06-15T13:32:03.575Z,25.36
2018-06-15T13:33:12.497Z,25.33
2018-06-15T13:34:21.141Z,25.34
2018-06-15T13:35:30.063Z,25.22
2018-06-15T13:36:38.717Z,25.11
2018-06-15T13:37:47.376Z,25.06
2018-06-15T13:38:56.026Z,25.19
2018-06-15T13:40:04.944Z,25.19
2018-06-15T13:41:13.595Z,25.16
2018-06-15T13:42:22.245Z,25.25
2018-06-15T13:43:30.922Z,25.21
2018-06-15T13:44:39.561Z,25.24
2018-06-15T13:45:48.222Z,25.22
2018-06-15T13:46:56.865Z,25.3
2018-06-15T13:48:05.528Z,25.48
2018-06-15T13:49:14.178Z,25.46
2018-06-15T13:50:22.834Z,25.4
2018-06-15T13:51:31.482Z,25.49
2018-06-15T13:52:40.148Z,25.58
2018-06-15T13:53:48.799Z,25.68
2018-06-15T13:54:57.720Z,25.74
2018-06-15T13:56:06.363Z,25.8
2018-06-15T13:57:15.020Z,25.81
2018-06-15T13:58:23.948Z,25.74
2018-06-15T13:59:32.604Z,25.77
2018-06-15T14:00:41.264Z,25.71
2018-06-15T14:01:50.171Z,25.77
2018-06-15T14:02:58.825Z,25.74
2018-06-15T14:04:07.480Z,25.7
2018-06-15T14:05:16.137Z,25.8
2018-06-15T14:06:24.787Z,25.74
2018-06-15T14:07:33.442Z,25.86
2018-06-15T14:08:42.096Z,25.76
2018-06-15T14:09:50.757Z,25.71
2018-06-15T14:10:59.407Z,25.67
2018-06-15T14:12:08.064Z,25.73
2018-06-15T14:13:16.981Z,25.77
2018-06-15T14:14:25.640Z,25.76
2018-06-15T14:15:34.293Z,25.88
2018-06-15T14:16:43.209Z,25.78
2018-06-15T14:17:51.861Z,25.89
2018-06-15T14:19:00.511Z,25.76
2018-06-15T14:20:09.167Z,25.73
2018-06-15T14:21:17.825Z,25.68
2018-06-15T14:22:26.481Z,25.68
2018-06-15T14:23:35.129Z,25.76
2018-06-15T14:24:43.787Z,25.67
2018-06-15T14:25:52.440Z,25.68
2018-06-15T14:27:01.094Z,25.67
2018-06-15T14:28:10.275Z,25.56
2018-06-15T14:29:18.935Z,25.51
2018-06-15T14:30:27.586Z,25.54
2018-06-15T14:31:36.244Z,25.43
2018-06-15T14:32:45.168Z,25.46
2018-06-15T14:33:54.091Z,25.62
2018-06-15T14:35:03.010Z,25.48
2018-06-15T14:36:11.667Z,25.59
2018-06-15T14:37:20.319Z,25.46
2018-06-15T14:38:28.968Z,25.33
2018-06-15T14:39:37.664Z,25.44
2018-06-15T14:40:46.276Z,25.3
2018-06-15T14:41:54.934Z,25.3
2018-06-15T14:43:03.583Z,25.3
2018-06-15T14:44:12.239Z,25.25
2018-06-15T14:45:21.155Z,25.25
2018-06-15T14:46:29.813Z,25.22
2018-06-15T14:47:38.464Z,25.25